sensor_id;sensor_type;location;lat;lon;timestamp;temperature;humidity
54684;DHT22;40582;53.100;6.686;2023-07-31T00:00:31;16.20;99.90
54684;DHT22;40582;53.100;6.686;2023-07-31T00:02:57;16.20;99.90
54684;DHT22;40582;53.100;6.686;2023-07-31T00:05:23;16.20;99.90
54684;DHT22;40582;53.100;6.686;2023-07-31T00:07:48;16.10;99.90
54684;DHT22;40582;53.100;6.686;2023-07-31T00:10:14;16.10;99.90
54684;DHT22;40582;53.100;6.686;2023-07-31T00:12:43;16.10;99.90
54684;DHT22;40582;53.100;6.686;2023-07-31T00:15:09;16.10;99.90
54684;DHT22;40582;53.100;6.686;2023-07-31T00:17:35;16.10;99.90
54684;DHT22;40582;53.100;6.686;2023-07-31T00:20:01;16.10;99.90
54684;DHT22;40582;53.100;6.686;2023-07-31T00:22:27;16.00;99.90
54684;DHT22;40582;53.100;6.686;2023-07-31T00:24:53;16.00;99.90
54684;DHT22;40582;53.100;6.686;2023-07-31T00:27:19;16.00;99.90
54684;DHT22;40582;53.100;6.686;2023-07-31T00:29:44;16.00;99.90
54684;DHT22;40582;53.100;6.686;2023-07-31T00:32:10;16.00;99.90
54684;DHT22;40582;53.100;6.686;2023-07-31T00:34:35;16.00;99.90
54684;DHT22;40582;53.100;6.686;2023-07-31T00:37:01;15.90;99.90
54684;DHT22;40582;53.100;6.686;2023-07-31T00:39:27;15.90;99.90
54684;DHT22;40582;53.100;6.686;2023-07-31T00:41:52;15.90;99.90
54684;DHT22;40582;53.100;6.686;2023-07-31T00:44:18;15.90;99.90
54684;DHT22;40582;53.100;6.686;2023-07-31T00:46:44;15.90;99.90
54684;DHT22;40582;53.100;6.686;2023-07-31T00:49:11;15.90;99.90
54684;DHT22;40582;53.100;6.686;2023-07-31T00:51:37;15.80;99.90
54684;DHT22;40582;53.100;6.686;2023-07-31T00:54:03;15.90;99.90
54684;DHT22;40582;53.100;6.686;2023-07-31T00:56:29;15.80;99.90
54684;DHT22;40582;53.100;6.686;2023-07-31T00:58:55;15.90;99.90
54684;DHT22;40582;53.100;6.686;2023-07-31T01:01:21;15.80;99.90
54684;DHT22;40582;53.100;6.686;2023-07-31T01:03:48;15.80;99.90
54684;DHT22;40582;53.100;6.686;2023-07-31T01:08:59;15.80;99.90
54684;DHT22;40582;53.100;6.686;2023-07-31T01:11:30;15.80;99.90
54684;DHT22;40582;53.100;6.686;2023-07-31T01:13:56;15.80;99.90
54684;DHT22;40582;53.100;6.686;2023-07-31T01:16:22;15.80;99.90
54684;DHT22;40582;53.100;6.686;2023-07-31T01:18:48;15.80;99.90
54684;DHT22;40582;53.100;6.686;2023-07-31T01:24:30;15.80;99.90
54684;DHT22;40582;53.100;6.686;2023-07-31T01:27:08;15.70;99.90
54684;DHT22;40582;53.100;6.686;2023-07-31T01:32:02;15.70;99.90
54684;DHT22;40582;53.100;6.686;2023-07-31T01:34:29;15.70;99.90
54684;DHT22;40582;53.100;6.686;2023-07-31T01:36:58;15.70;99.90
54684;DHT22;40582;53.100;6.686;2023-07-31T01:39:24;15.70;99.90
54684;DHT22;40582;53.100;6.686;2023-07-31T01:41:50;15.70;99.90
54684;DHT22;40582;53.100;6.686;2023-07-31T01:44:16;15.70;99.90
54684;DHT22;40582;53.100;6.686;2023-07-31T01:46:42;15.70;99.90
54684;DHT22;40582;53.100;6.686;2023-07-31T01:49:07;15.70;99.90
54684;DHT22;40582;53.100;6.686;2023-07-31T01:51:33;15.70;99.90
54684;DHT22;40582;53.100;6.686;2023-07-31T01:54:00;15.70;99.90
54684;DHT22;40582;53.100;6.686;2023-07-31T01:56:26;15.70;99.90
54684;DHT22;40582;53.100;6.686;2023-07-31T01:58:52;15.70;99.90
54684;DHT22;40582;53.100;6.686;2023-07-31T02:01:17;15.70;99.90
54684;DHT22;40582;53.100;6.686;2023-07-31T02:03:43;15.70;99.90
54684;DHT22;40582;53.100;6.686;2023-07-31T02:06:09;15.70;99.90
54684;DHT22;40582;53.100;6.686;2023-07-31T02:08:34;15.70;99.90
54684;DHT22;40582;53.100;6.686;2023-07-31T02:11:00;15.70;99.90
54684;DHT22;40582;53.100;6.686;2023-07-31T02:13:26;15.60;99.90
54684;DHT22;40582;53.100;6.686;2023-07-31T02:15:51;15.60;99.90
54684;DHT22;40582;53.100;6.686;2023-07-31T02:18:17;15.60;99.90
54684;DHT22;40582;53.100;6.686;2023-07-31T02:20:43;15.60;99.90
54684;DHT22;40582;53.100;6.686;2023-07-31T02:23:11;15.60;99.90
54684;DHT22;40582;53.100;6.686;2023-07-31T02:25:37;15.60;99.90
54684;DHT22;40582;53.100;6.686;2023-07-31T02:28:03;15.60;99.90
54684;DHT22;40582;53.100;6.686;2023-07-31T02:30:28;15.60;99.90
54684;DHT22;40582;53.100;6.686;2023-07-31T02:32:54;15.50;99.90
54684;DHT22;40582;53.100;6.686;2023-07-31T02:35:20;15.50;99.90
54684;DHT22;40582;53.100;6.686;2023-07-31T02:37:45;15.50;99.90
54684;DHT22;40582;53.100;6.686;2023-07-31T02:40:11;15.50;99.90
54684;DHT22;40582;53.100;6.686;2023-07-31T02:42:37;15.50;99.90
54684;DHT22;40582;53.100;6.686;2023-07-31T02:45:03;15.50;99.90
54684;DHT22;40582;53.100;6.686;2023-07-31T02:47:28;15.50;99.90
54684;DHT22;40582;53.100;6.686;2023-07-31T02:49:54;15.50;99.90
54684;DHT22;40582;53.100;6.686;2023-07-31T02:52:21;15.50;99.90
54684;DHT22;40582;53.100;6.686;2023-07-31T02:54:47;15.40;99.90
54684;DHT22;40582;53.100;6.686;2023-07-31T02:57:12;15.50;99.90
54684;DHT22;40582;53.100;6.686;2023-07-31T02:59:38;15.50;99.90
54684;DHT22;40582;53.100;6.686;2023-07-31T03:02:04;15.50;99.90
54684;DHT22;40582;53.100;6.686;2023-07-31T03:04:29;15.50;99.90
54684;DHT22;40582;53.100;6.686;2023-07-31T03:06:55;15.50;99.90
54684;DHT22;40582;53.100;6.686;2023-07-31T03:09:20;15.50;99.90
54684;DHT22;40582;53.100;6.686;2023-07-31T03:11:46;15.50;99.90
54684;DHT22;40582;53.100;6.686;2023-07-31T03:14:12;15.50;99.90
54684;DHT22;40582;53.100;6.686;2023-07-31T03:16:37;15.60;99.90
54684;DHT22;40582;53.100;6.686;2023-07-31T03:19:03;15.50;99.90
54684;DHT22;40582;53.100;6.686;2023-07-31T03:21:29;15.50;99.90
54684;DHT22;40582;53.100;6.686;2023-07-31T03:23:54;15.50;99.90
54684;DHT22;40582;53.100;6.686;2023-07-31T03:26:20;15.50;99.90
54684;DHT22;40582;53.100;6.686;2023-07-31T03:28:46;15.60;99.90
54684;DHT22;40582;53.100;6.686;2023-07-31T03:31:11;15.50;99.90
54684;DHT22;40582;53.100;6.686;2023-07-31T03:33:37;15.50;99.90
54684;DHT22;40582;53.100;6.686;2023-07-31T03:36:03;15.60;99.90
54684;DHT22;40582;53.100;6.686;2023-07-31T03:38:29;15.60;99.90
54684;DHT22;40582;53.100;6.686;2023-07-31T03:40:54;15.60;99.90
54684;DHT22;40582;53.100;6.686;2023-07-31T03:43:20;15.60;99.90
54684;DHT22;40582;53.100;6.686;2023-07-31T03:45:46;15.60;99.90
54684;DHT22;40582;53.100;6.686;2023-07-31T03:48:11;15.60;99.90
54684;DHT22;40582;53.100;6.686;2023-07-31T03:50:37;15.60;99.90
54684;DHT22;40582;53.100;6.686;2023-07-31T03:53:03;15.70;99.90
54684;DHT22;40582;53.100;6.686;2023-07-31T03:55:28;15.70;99.90
54684;DHT22;40582;53.100;6.686;2023-07-31T03:57:54;15.70;99.90
54684;DHT22;40582;53.100;6.686;2023-07-31T04:00:20;15.70;99.90
54684;DHT22;40582;53.100;6.686;2023-07-31T04:02:46;15.70;99.90
54684;DHT22;40582;53.100;6.686;2023-07-31T04:05:12;15.70;99.90
54684;DHT22;40582;53.100;6.686;2023-07-31T04:07:38;15.60;99.90
54684;DHT22;40582;53.100;6.686;2023-07-31T04:10:04;15.70;99.90
54684;DHT22;40582;53.100;6.686;2023-07-31T04:12:29;15.70;99.90
54684;DHT22;40582;53.100;6.686;2023-07-31T04:14:55;15.70;99.90
54684;DHT22;40582;53.100;6.686;2023-07-31T04:17:21;15.70;99.90
54684;DHT22;40582;53.100;6.686;2023-07-31T04:19:46;15.70;99.90
54684;DHT22;40582;53.100;6.686;2023-07-31T04:22:12;15.70;99.90
54684;DHT22;40582;53.100;6.686;2023-07-31T04:24:38;15.80;99.90
54684;DHT22;40582;53.100;6.686;2023-07-31T04:27:03;15.80;99.90
54684;DHT22;40582;53.100;6.686;2023-07-31T04:29:29;15.80;99.90
54684;DHT22;40582;53.100;6.686;2023-07-31T04:31:55;15.80;99.90
54684;DHT22;40582;53.100;6.686;2023-07-31T04:34:20;15.80;99.90
54684;DHT22;40582;53.100;6.686;2023-07-31T04:36:46;15.80;99.90
54684;DHT22;40582;53.100;6.686;2023-07-31T04:39:12;15.90;99.90
54684;DHT22;40582;53.100;6.686;2023-07-31T04:41:37;15.90;99.90
54684;DHT22;40582;53.100;6.686;2023-07-31T04:44:03;15.90;99.90
54684;DHT22;40582;53.100;6.686;2023-07-31T04:46:29;15.90;99.90
54684;DHT22;40582;53.100;6.686;2023-07-31T04:48:56;15.90;99.90
54684;DHT22;40582;53.100;6.686;2023-07-31T04:51:21;15.80;99.90
54684;DHT22;40582;53.100;6.686;2023-07-31T04:53:48;15.90;99.90
54684;DHT22;40582;53.100;6.686;2023-07-31T04:56:14;15.90;99.90
54684;DHT22;40582;53.100;6.686;2023-07-31T04:58:41;15.80;99.90
54684;DHT22;40582;53.100;6.686;2023-07-31T05:01:06;15.90;99.90
54684;DHT22;40582;53.100;6.686;2023-07-31T05:03:32;15.90;99.90
54684;DHT22;40582;53.100;6.686;2023-07-31T05:05:57;15.90;99.90
54684;DHT22;40582;53.100;6.686;2023-07-31T05:08:23;15.90;99.90
54684;DHT22;40582;53.100;6.686;2023-07-31T05:10:49;15.80;99.90
54684;DHT22;40582;53.100;6.686;2023-07-31T05:13:15;15.90;99.90
54684;DHT22;40582;53.100;6.686;2023-07-31T05:15:41;15.90;99.90
54684;DHT22;40582;53.100;6.686;2023-07-31T05:18:07;15.90;99.90
54684;DHT22;40582;53.100;6.686;2023-07-31T05:20:33;15.90;99.90
54684;DHT22;40582;53.100;6.686;2023-07-31T05:22:58;15.80;99.90
54684;DHT22;40582;53.100;6.686;2023-07-31T05:25:24;15.80;99.90
54684;DHT22;40582;53.100;6.686;2023-07-31T05:27:50;15.80;99.90
54684;DHT22;40582;53.100;6.686;2023-07-31T05:30:15;15.80;99.90
54684;DHT22;40582;53.100;6.686;2023-07-31T05:32:41;15.80;99.90
54684;DHT22;40582;53.100;6.686;2023-07-31T05:35:07;15.90;99.90
54684;DHT22;40582;53.100;6.686;2023-07-31T05:37:32;15.90;99.90
54684;DHT22;40582;53.100;6.686;2023-07-31T05:39:58;15.90;99.90
54684;DHT22;40582;53.100;6.686;2023-07-31T05:42:24;16.00;99.90
54684;DHT22;40582;53.100;6.686;2023-07-31T05:44:49;16.00;99.90
54684;DHT22;40582;53.100;6.686;2023-07-31T05:47:15;16.00;99.90
54684;DHT22;40582;53.100;6.686;2023-07-31T05:49:41;16.00;99.90
54684;DHT22;40582;53.100;6.686;2023-07-31T05:52:07;16.00;99.90
54684;DHT22;40582;53.100;6.686;2023-07-31T05:54:32;16.00;99.90
54684;DHT22;40582;53.100;6.686;2023-07-31T05:56:59;16.00;99.90
54684;DHT22;40582;53.100;6.686;2023-07-31T05:59:24;16.00;99.90
54684;DHT22;40582;53.100;6.686;2023-07-31T06:01:50;16.10;99.90
54684;DHT22;40582;53.100;6.686;2023-07-31T06:04:16;16.10;99.90
54684;DHT22;40582;53.100;6.686;2023-07-31T06:06:41;16.10;99.90
54684;DHT22;40582;53.100;6.686;2023-07-31T06:09:07;16.20;99.90
54684;DHT22;40582;53.100;6.686;2023-07-31T06:11:33;16.20;99.90
54684;DHT22;40582;53.100;6.686;2023-07-31T06:13:58;16.20;99.90
54684;DHT22;40582;53.100;6.686;2023-07-31T06:16:25;16.20;99.90
54684;DHT22;40582;53.100;6.686;2023-07-31T06:18:51;16.30;99.90
54684;DHT22;40582;53.100;6.686;2023-07-31T06:21:17;16.40;99.90
54684;DHT22;40582;53.100;6.686;2023-07-31T06:23:42;16.60;99.90
54684;DHT22;40582;53.100;6.686;2023-07-31T06:26:08;16.70;99.90
54684;DHT22;40582;53.100;6.686;2023-07-31T06:28:34;16.70;99.90
54684;DHT22;40582;53.100;6.686;2023-07-31T06:31:00;16.90;99.90
54684;DHT22;40582;53.100;6.686;2023-07-31T06:33:27;17.00;99.90
54684;DHT22;40582;53.100;6.686;2023-07-31T06:35:53;17.20;99.90
54684;DHT22;40582;53.100;6.686;2023-07-31T06:38:26;17.30;99.90
54684;DHT22;40582;53.100;6.686;2023-07-31T06:40:52;17.50;99.90
54684;DHT22;40582;53.100;6.686;2023-07-31T06:43:18;17.50;99.90
54684;DHT22;40582;53.100;6.686;2023-07-31T06:45:44;17.50;99.90
54684;DHT22;40582;53.100;6.686;2023-07-31T06:48:10;17.50;99.90
54684;DHT22;40582;53.100;6.686;2023-07-31T06:50:35;17.60;99.90
54684;DHT22;40582;53.100;6.686;2023-07-31T06:53:02;17.70;99.90
54684;DHT22;40582;53.100;6.686;2023-07-31T06:55:28;17.80;99.90
54684;DHT22;40582;53.100;6.686;2023-07-31T06:57:54;17.90;99.90
54684;DHT22;40582;53.100;6.686;2023-07-31T07:00:22;17.90;99.90
54684;DHT22;40582;53.100;6.686;2023-07-31T07:02:48;18.00;99.90
54684;DHT22;40582;53.100;6.686;2023-07-31T07:05:15;17.90;99.90
54684;DHT22;40582;53.100;6.686;2023-07-31T07:07:42;17.80;99.90
54684;DHT22;40582;53.100;6.686;2023-07-31T07:10:08;17.80;99.90
54684;DHT22;40582;53.100;6.686;2023-07-31T07:12:34;17.80;99.90
54684;DHT22;40582;53.100;6.686;2023-07-31T07:15:00;17.90;99.90
54684;DHT22;40582;53.100;6.686;2023-07-31T07:17:28;17.90;99.90
54684;DHT22;40582;53.100;6.686;2023-07-31T07:19:56;17.80;99.90
54684;DHT22;40582;53.100;6.686;2023-07-31T07:22:22;17.80;99.90
54684;DHT22;40582;53.100;6.686;2023-07-31T07:24:48;17.80;99.90
54684;DHT22;40582;53.100;6.686;2023-07-31T07:27:13;17.70;99.90
54684;DHT22;40582;53.100;6.686;2023-07-31T07:29:40;17.60;99.90
54684;DHT22;40582;53.100;6.686;2023-07-31T07:32:06;17.60;99.90
54684;DHT22;40582;53.100;6.686;2023-07-31T07:34:32;17.60;99.90
54684;DHT22;40582;53.100;6.686;2023-07-31T07:36:57;17.50;99.90
54684;DHT22;40582;53.100;6.686;2023-07-31T07:39:23;17.60;99.90
54684;DHT22;40582;53.100;6.686;2023-07-31T07:41:49;17.60;99.90
54684;DHT22;40582;53.100;6.686;2023-07-31T07:44:14;17.60;99.90
54684;DHT22;40582;53.100;6.686;2023-07-31T07:46:40;17.60;99.90
54684;DHT22;40582;53.100;6.686;2023-07-31T07:49:06;17.60;99.90
54684;DHT22;40582;53.100;6.686;2023-07-31T07:51:32;17.70;99.90
54684;DHT22;40582;53.100;6.686;2023-07-31T07:53:58;17.70;99.90
54684;DHT22;40582;53.100;6.686;2023-07-31T07:56:26;17.70;99.90
54684;DHT22;40582;53.100;6.686;2023-07-31T07:58:52;17.70;99.90
54684;DHT22;40582;53.100;6.686;2023-07-31T08:01:17;17.80;99.90
54684;DHT22;40582;53.100;6.686;2023-07-31T08:03:43;17.70;99.90
54684;DHT22;40582;53.100;6.686;2023-07-31T08:06:09;17.70;99.90
54684;DHT22;40582;53.100;6.686;2023-07-31T08:08:38;17.80;99.90
54684;DHT22;40582;53.100;6.686;2023-07-31T08:11:04;17.80;99.90
54684;DHT22;40582;53.100;6.686;2023-07-31T08:13:30;17.90;99.90
54684;DHT22;40582;53.100;6.686;2023-07-31T08:15:55;17.90;99.90
54684;DHT22;40582;53.100;6.686;2023-07-31T08:18:21;17.80;99.90
54684;DHT22;40582;53.100;6.686;2023-07-31T08:20:47;17.80;99.90
54684;DHT22;40582;53.100;6.686;2023-07-31T08:23:13;17.80;99.90
54684;DHT22;40582;53.100;6.686;2023-07-31T08:25:39;17.90;99.90
54684;DHT22;40582;53.100;6.686;2023-07-31T08:28:05;17.80;99.90
54684;DHT22;40582;53.100;6.686;2023-07-31T08:30:32;17.90;99.90
54684;DHT22;40582;53.100;6.686;2023-07-31T08:32:59;17.90;99.90
54684;DHT22;40582;53.100;6.686;2023-07-31T08:35:25;17.90;99.90
54684;DHT22;40582;53.100;6.686;2023-07-31T08:37:51;18.00;99.90
54684;DHT22;40582;53.100;6.686;2023-07-31T08:40:17;18.00;99.90
54684;DHT22;40582;53.100;6.686;2023-07-31T08:42:47;18.20;99.90
54684;DHT22;40582;53.100;6.686;2023-07-31T08:45:15;18.20;99.90
54684;DHT22;40582;53.100;6.686;2023-07-31T08:47:51;18.30;99.90
54684;DHT22;40582;53.100;6.686;2023-07-31T08:50:21;18.40;99.90
54684;DHT22;40582;53.100;6.686;2023-07-31T08:52:48;18.50;99.90
54684;DHT22;40582;53.100;6.686;2023-07-31T08:55:14;18.50;99.90
54684;DHT22;40582;53.100;6.686;2023-07-31T08:57:39;18.60;99.90
54684;DHT22;40582;53.100;6.686;2023-07-31T09:00:08;18.50;99.90
54684;DHT22;40582;53.100;6.686;2023-07-31T09:05:14;18.60;99.90
54684;DHT22;40582;53.100;6.686;2023-07-31T09:07:42;18.60;99.90
54684;DHT22;40582;53.100;6.686;2023-07-31T09:10:11;18.80;99.90
54684;DHT22;40582;53.100;6.686;2023-07-31T09:12:38;18.80;99.90
54684;DHT22;40582;53.100;6.686;2023-07-31T09:15:05;18.90;99.90
54684;DHT22;40582;53.100;6.686;2023-07-31T09:17:35;19.10;99.90
54684;DHT22;40582;53.100;6.686;2023-07-31T09:20:28;19.20;99.90
54684;DHT22;40582;53.100;6.686;2023-07-31T09:22:55;19.20;99.90
54684;DHT22;40582;53.100;6.686;2023-07-31T09:25:25;19.20;99.90
54684;DHT22;40582;53.100;6.686;2023-07-31T09:27:58;19.30;99.90
54684;DHT22;40582;53.100;6.686;2023-07-31T09:30:24;19.40;99.90
54684;DHT22;40582;53.100;6.686;2023-07-31T09:32:51;19.30;99.90
54684;DHT22;40582;53.100;6.686;2023-07-31T09:35:31;19.30;99.90
54684;DHT22;40582;53.100;6.686;2023-07-31T09:38:08;19.30;99.90
54684;DHT22;40582;53.100;6.686;2023-07-31T09:40:36;19.40;99.90
54684;DHT22;40582;53.100;6.686;2023-07-31T09:43:04;19.60;99.90
54684;DHT22;40582;53.100;6.686;2023-07-31T09:45:35;19.70;99.90
54684;DHT22;40582;53.100;6.686;2023-07-31T09:48:07;19.70;99.90
54684;DHT22;40582;53.100;6.686;2023-07-31T09:50:39;19.80;99.90
54684;DHT22;40582;53.100;6.686;2023-07-31T09:53:09;20.10;99.90
54684;DHT22;40582;53.100;6.686;2023-07-31T09:55:35;20.40;99.90
54684;DHT22;40582;53.100;6.686;2023-07-31T09:58:09;20.50;99.90
54684;DHT22;40582;53.100;6.686;2023-07-31T10:00:35;20.60;99.90
54684;DHT22;40582;53.100;6.686;2023-07-31T10:03:06;20.50;99.90
54684;DHT22;40582;53.100;6.686;2023-07-31T10:05:35;20.60;99.90
54684;DHT22;40582;53.100;6.686;2023-07-31T10:08:01;20.80;99.90
54684;DHT22;40582;53.100;6.686;2023-07-31T10:10:27;21.10;99.90
54684;DHT22;40582;53.100;6.686;2023-07-31T10:12:54;21.30;99.90
54684;DHT22;40582;53.100;6.686;2023-07-31T10:15:21;21.30;99.90
54684;DHT22;40582;53.100;6.686;2023-07-31T10:17:48;21.40;99.90
54684;DHT22;40582;53.100;6.686;2023-07-31T10:20:15;21.20;99.90
54684;DHT22;40582;53.100;6.686;2023-07-31T10:22:44;21.20;99.90
54684;DHT22;40582;53.100;6.686;2023-07-31T10:25:15;21.10;99.90
54684;DHT22;40582;53.100;6.686;2023-07-31T10:27:41;20.90;99.90
54684;DHT22;40582;53.100;6.686;2023-07-31T10:30:19;20.90;99.90
54684;DHT22;40582;53.100;6.686;2023-07-31T10:32:45;21.20;99.90
54684;DHT22;40582;53.100;6.686;2023-07-31T10:35:14;21.40;99.90
54684;DHT22;40582;53.100;6.686;2023-07-31T10:37:42;21.50;99.90
54684;DHT22;40582;53.100;6.686;2023-07-31T10:40:27;21.60;99.90
54684;DHT22;40582;53.100;6.686;2023-07-31T10:42:54;21.70;99.90
54684;DHT22;40582;53.100;6.686;2023-07-31T10:45:42;21.70;99.90
54684;DHT22;40582;53.100;6.686;2023-07-31T10:48:16;21.70;99.90
54684;DHT22;40582;53.100;6.686;2023-07-31T10:50:50;21.40;99.90
54684;DHT22;40582;53.100;6.686;2023-07-31T10:53:29;21.10;99.90
54684;DHT22;40582;53.100;6.686;2023-07-31T10:56:01;20.90;99.90
54684;DHT22;40582;53.100;6.686;2023-07-31T10:58:27;20.70;99.90
54684;DHT22;40582;53.100;6.686;2023-07-31T11:01:03;20.60;99.90
54684;DHT22;40582;53.100;6.686;2023-07-31T11:03:43;20.60;99.90
54684;DHT22;40582;53.100;6.686;2023-07-31T11:06:10;20.60;99.90
54684;DHT22;40582;53.100;6.686;2023-07-31T11:08:42;20.50;99.90
54684;DHT22;40582;53.100;6.686;2023-07-31T11:11:10;20.40;99.90
54684;DHT22;40582;53.100;6.686;2023-07-31T11:13:42;20.20;99.90
54684;DHT22;40582;53.100;6.686;2023-07-31T11:16:09;20.10;99.90
54684;DHT22;40582;53.100;6.686;2023-07-31T11:18:37;20.00;99.90
54684;DHT22;40582;53.100;6.686;2023-07-31T11:21:03;20.00;99.90
54684;DHT22;40582;53.100;6.686;2023-07-31T11:23:30;20.00;99.90
54684;DHT22;40582;53.100;6.686;2023-07-31T11:25:59;19.90;99.90
54684;DHT22;40582;53.100;6.686;2023-07-31T11:28:25;19.90;99.90
54684;DHT22;40582;53.100;6.686;2023-07-31T11:30:50;19.80;99.90
54684;DHT22;40582;53.100;6.686;2023-07-31T11:33:16;19.80;99.90
54684;DHT22;40582;53.100;6.686;2023-07-31T11:35:47;19.80;99.90
54684;DHT22;40582;53.100;6.686;2023-07-31T11:38:24;19.70;99.90
54684;DHT22;40582;53.100;6.686;2023-07-31T11:40:51;19.70;99.90
54684;DHT22;40582;53.100;6.686;2023-07-31T11:43:18;19.70;99.90
54684;DHT22;40582;53.100;6.686;2023-07-31T11:45:54;19.70;99.90
54684;DHT22;40582;53.100;6.686;2023-07-31T11:48:21;19.70;99.90
54684;DHT22;40582;53.100;6.686;2023-07-31T11:50:49;19.80;99.90
54684;DHT22;40582;53.100;6.686;2023-07-31T11:53:18;19.80;99.90
54684;DHT22;40582;53.100;6.686;2023-07-31T11:55:45;20.00;99.90
54684;DHT22;40582;53.100;6.686;2023-07-31T11:58:12;20.20;99.90
54684;DHT22;40582;53.100;6.686;2023-07-31T12:00:39;20.60;99.90
54684;DHT22;40582;53.100;6.686;2023-07-31T12:03:04;21.00;99.90
54684;DHT22;40582;53.100;6.686;2023-07-31T12:05:30;21.20;99.90
54684;DHT22;40582;53.100;6.686;2023-07-31T12:07:56;21.40;99.90
54684;DHT22;40582;53.100;6.686;2023-07-31T12:10:31;21.60;99.90
54684;DHT22;40582;53.100;6.686;2023-07-31T12:13:04;21.70;99.90
54684;DHT22;40582;53.100;6.686;2023-07-31T12:15:36;22.00;99.90
54684;DHT22;40582;53.100;6.686;2023-07-31T12:18:08;22.10;99.90
54684;DHT22;40582;53.100;6.686;2023-07-31T12:20:34;22.30;99.90
54684;DHT22;40582;53.100;6.686;2023-07-31T12:23:00;22.20;99.90
54684;DHT22;40582;53.100;6.686;2023-07-31T12:25:30;22.00;99.90
54684;DHT22;40582;53.100;6.686;2023-07-31T12:27:56;21.80;99.90
54684;DHT22;40582;53.100;6.686;2023-07-31T12:30:29;21.60;99.90
54684;DHT22;40582;53.100;6.686;2023-07-31T12:32:55;21.50;99.90
54684;DHT22;40582;53.100;6.686;2023-07-31T12:35:20;21.20;99.90
54684;DHT22;40582;53.100;6.686;2023-07-31T12:37:46;20.90;99.90
54684;DHT22;40582;53.100;6.686;2023-07-31T12:40:12;20.70;99.90
54684;DHT22;40582;53.100;6.686;2023-07-31T12:42:38;20.60;99.90
54684;DHT22;40582;53.100;6.686;2023-07-31T12:45:04;20.50;99.90
54684;DHT22;40582;53.100;6.686;2023-07-31T12:47:30;20.50;99.90
54684;DHT22;40582;53.100;6.686;2023-07-31T12:49:55;20.50;99.90
54684;DHT22;40582;53.100;6.686;2023-07-31T12:52:21;20.50;99.90
54684;DHT22;40582;53.100;6.686;2023-07-31T12:54:47;20.40;99.90
54684;DHT22;40582;53.100;6.686;2023-07-31T12:57:12;20.30;99.90
54684;DHT22;40582;53.100;6.686;2023-07-31T12:59:38;20.20;99.90
54684;DHT22;40582;53.100;6.686;2023-07-31T13:02:04;20.00;99.90
54684;DHT22;40582;53.100;6.686;2023-07-31T13:04:30;19.90;99.90
54684;DHT22;40582;53.100;6.686;2023-07-31T13:06:56;19.80;99.90
54684;DHT22;40582;53.100;6.686;2023-07-31T13:09:21;19.70;99.90
54684;DHT22;40582;53.100;6.686;2023-07-31T13:11:47;19.60;99.90
54684;DHT22;40582;53.100;6.686;2023-07-31T13:14:13;19.50;99.90
54684;DHT22;40582;53.100;6.686;2023-07-31T13:16:38;19.40;99.90
54684;DHT22;40582;53.100;6.686;2023-07-31T13:19:04;19.40;99.90
54684;DHT22;40582;53.100;6.686;2023-07-31T13:21:30;19.40;99.90
54684;DHT22;40582;53.100;6.686;2023-07-31T13:23:55;19.50;99.90
54684;DHT22;40582;53.100;6.686;2023-07-31T13:26:23;19.70;99.90
54684;DHT22;40582;53.100;6.686;2023-07-31T13:28:49;19.70;99.90
54684;DHT22;40582;53.100;6.686;2023-07-31T13:31:14;19.70;99.90
54684;DHT22;40582;53.100;6.686;2023-07-31T13:33:40;19.80;99.90
54684;DHT22;40582;53.100;6.686;2023-07-31T13:36:06;19.90;99.90
54684;DHT22;40582;53.100;6.686;2023-07-31T13:38:31;20.10;99.90
54684;DHT22;40582;53.100;6.686;2023-07-31T13:40:57;20.30;99.90
54684;DHT22;40582;53.100;6.686;2023-07-31T13:43:23;20.50;99.90
54684;DHT22;40582;53.100;6.686;2023-07-31T13:45:49;20.60;99.90
54684;DHT22;40582;53.100;6.686;2023-07-31T13:48:14;20.80;99.90
54684;DHT22;40582;53.100;6.686;2023-07-31T13:50:40;21.00;99.90
54684;DHT22;40582;53.100;6.686;2023-07-31T13:53:06;21.20;99.90
54684;DHT22;40582;53.100;6.686;2023-07-31T13:55:31;21.40;99.90
54684;DHT22;40582;53.100;6.686;2023-07-31T13:57:57;21.50;99.90
54684;DHT22;40582;53.100;6.686;2023-07-31T14:00:22;21.50;99.90
54684;DHT22;40582;53.100;6.686;2023-07-31T14:02:48;21.50;99.90
54684;DHT22;40582;53.100;6.686;2023-07-31T14:05:14;21.50;99.90
54684;DHT22;40582;53.100;6.686;2023-07-31T14:07:39;21.50;99.90
54684;DHT22;40582;53.100;6.686;2023-07-31T14:10:06;21.50;99.90
54684;DHT22;40582;53.100;6.686;2023-07-31T14:12:32;21.60;99.90
54684;DHT22;40582;53.100;6.686;2023-07-31T14:14:58;21.50;99.90
54684;DHT22;40582;53.100;6.686;2023-07-31T14:17:24;21.40;99.90
54684;DHT22;40582;53.100;6.686;2023-07-31T14:19:50;21.40;99.90
54684;DHT22;40582;53.100;6.686;2023-07-31T14:22:26;21.40;99.90
54684;DHT22;40582;53.100;6.686;2023-07-31T14:24:52;21.30;99.90
54684;DHT22;40582;53.100;6.686;2023-07-31T14:27:17;21.30;99.90
54684;DHT22;40582;53.100;6.686;2023-07-31T14:29:43;21.30;99.90
54684;DHT22;40582;53.100;6.686;2023-07-31T14:32:09;21.20;99.90
54684;DHT22;40582;53.100;6.686;2023-07-31T14:34:34;21.10;99.90
54684;DHT22;40582;53.100;6.686;2023-07-31T14:37:00;21.00;99.90
54684;DHT22;40582;53.100;6.686;2023-07-31T14:39:26;21.00;99.90
54684;DHT22;40582;53.100;6.686;2023-07-31T14:41:51;21.00;99.90
54684;DHT22;40582;53.100;6.686;2023-07-31T14:44:17;21.10;99.90
54684;DHT22;40582;53.100;6.686;2023-07-31T14:46:43;21.10;99.90
54684;DHT22;40582;53.100;6.686;2023-07-31T14:49:08;21.00;99.90
54684;DHT22;40582;53.100;6.686;2023-07-31T14:51:34;21.00;99.90
54684;DHT22;40582;53.100;6.686;2023-07-31T14:54:00;21.00;99.90
54684;DHT22;40582;53.100;6.686;2023-07-31T14:56:26;20.90;99.90
54684;DHT22;40582;53.100;6.686;2023-07-31T14:58:53;20.90;99.90
54684;DHT22;40582;53.100;6.686;2023-07-31T15:01:19;20.70;99.90
54684;DHT22;40582;53.100;6.686;2023-07-31T15:03:44;20.70;99.90
54684;DHT22;40582;53.100;6.686;2023-07-31T15:06:10;20.60;99.90
54684;DHT22;40582;53.100;6.686;2023-07-31T15:08:38;20.50;99.90
54684;DHT22;40582;53.100;6.686;2023-07-31T15:11:05;20.40;99.90
54684;DHT22;40582;53.100;6.686;2023-07-31T15:13:31;20.40;99.90
54684;DHT22;40582;53.100;6.686;2023-07-31T15:15:57;20.30;99.90
54684;DHT22;40582;53.100;6.686;2023-07-31T15:18:23;20.30;99.90
54684;DHT22;40582;53.100;6.686;2023-07-31T15:20:49;20.20;99.90
54684;DHT22;40582;53.100;6.686;2023-07-31T15:23:15;20.20;99.90
54684;DHT22;40582;53.100;6.686;2023-07-31T15:25:41;20.20;99.90
54684;DHT22;40582;53.100;6.686;2023-07-31T15:28:07;20.30;99.90
54684;DHT22;40582;53.100;6.686;2023-07-31T15:30:36;20.20;99.90
54684;DHT22;40582;53.100;6.686;2023-07-31T15:33:03;20.20;99.90
54684;DHT22;40582;53.100;6.686;2023-07-31T15:35:28;20.20;99.90
54684;DHT22;40582;53.100;6.686;2023-07-31T15:37:54;20.20;99.90